Time;durP1;ratioP1;P1;durP2;ratioP2;P2;SDS_P1;SDS_P2;PMS_P1;PMS_P2;Temp;Humidity;BMP_temperature;BMP_pressure;BME280_temperature;BME280_humidity;BME280_pressure;Samples;Min_cycle;Max_cycle;Signal;HPM_P1;HPM_P2
2020/12/04 00:01:43;;;;;;;16.27;9.38;;;4.80;99.90;;;;;;5056698;28;20116;-73
2020/12/04 00:04:09;;;;;;;13.77;8.80;;;4.80;99.90;;;;;;5073322;28;20032;-72
2020/12/04 00:06:35;;;;;;;16.50;9.23;;;4.70;99.90;;;;;;5056368;28;20393;-73
2020/12/04 00:09:01;;;;;;;16.02;9.50;;;4.80;99.90;;;;;;5073422;28;20020;-72
2020/12/04 00:11:32;;;;;;;15.93;9.82;;;4.70;99.90;;;;;;5074330;28;20369;-72
2020/12/04 00:13:58;;;;;;;15.55;8.50;;;4.60;99.90;;;;;;5074322;28;20028;-72
2020/12/04 00:16:23;;;;;;;13.13;8.77;;;4.70;99.90;;;;;;5072754;28;20036;-72
2020/12/04 00:18:49;;;;;;;16.55;9.27;;;4.70;99.90;;;;;;5073097;28;20039;-72
2020/12/04 00:21:14;;;;;;;16.10;9.55;;;4.70;99.90;;;;;;5074433;28;20343;-73
2020/12/04 00:23:40;;;;;;;15.38;9.77;;;4.70;99.90;;;;;;5074487;28;20024;-72
2020/12/04 00:26:06;;;;;;;14.30;8.80;;;4.60;99.90;;;;;;5073877;28;20101;-72
2020/12/04 00:28:31;;;;;;;13.55;8.90;;;4.60;99.90;;;;;;5074125;28;20070;-73
2020/12/04 00:30:57;;;;;;;14.63;8.85;;;4.60;99.90;;;;;;5073380;28;20024;-72
2020/12/04 00:33:22;;;;;;;13.48;8.52;;;4.60;99.90;;;;;;5072908;28;20071;-72
2020/12/04 00:35:48;;;;;;;13.32;8.30;;;4.60;99.90;;;;;;5073155;28;20029;-73
2020/12/04 00:38:13;;;;;;;14.02;8.95;;;4.70;99.90;;;;;;5073132;28;20100;-73
2020/12/04 00:40:39;;;;;;;12.45;8.02;;;4.70;99.90;;;;;;5056210;28;20052;-72
2020/12/04 00:43:04;;;;;;;12.75;8.10;;;4.70;99.90;;;;;;5072398;28;20029;-73
2020/12/04 00:45:30;;;;;;;13.57;8.40;;;4.70;99.90;;;;;;5073919;28;20028;-73
2020/12/04 00:47:56;;;;;;;13.75;8.25;;;4.80;99.90;;;;;;5073157;28;20361;-73
2020/12/04 00:50:21;;;;;;;16.67;7.80;;;4.80;99.90;;;;;;5074141;28;20085;-72
2020/12/04 00:52:47;;;;;;;14.45;7.88;;;4.90;99.90;;;;;;5072294;28;20028;-73
2020/12/04 00:55:15;;;;;;;12.18;7.80;;;4.90;99.90;;;;;;5073516;28;20024;-73
2020/12/04 00:57:40;;;;;;;12.02;7.80;;;4.90;99.90;;;;;;5072579;28;20021;-73
2020/12/04 01:00:06;;;;;;;13.45;7.90;;;4.90;99.90;;;;;;5073341;28;20127;-73
2020/12/04 01:02:32;;;;;;;14.15;8.07;;;5.00;99.90;;;;;;5073991;28;20082;-73
2020/12/04 01:04:57;;;;;;;12.35;7.90;;;5.00;99.90;;;;;;5073969;28;20070;-73
2020/12/04 01:07:23;;;;;;;12.27;7.28;;;4.90;99.90;;;;;;5055487;28;20034;-72
2020/12/04 01:09:48;;;;;;;12.68;8.18;;;5.00;99.90;;;;;;5038858;28;20123;-73
2020/12/04 01:12:14;;;;;;;12.50;8.20;;;5.00;99.90;;;;;;5073894;28;20016;-73
2020/12/04 01:14:39;;;;;;;12.52;7.78;;;5.10;99.90;;;;;;5073846;28;20079;-72
2020/12/04 01:17:05;;;;;;;13.27;8.15;;;5.00;99.90;;;;;;5072322;28;20478;-73
2020/12/04 01:19:31;;;;;;;13.68;8.35;;;5.00;99.90;;;;;;5073544;28;20074;-73
2020/12/04 01:21:56;;;;;;;12.43;7.95;;;5.00;99.90;;;;;;5055246;28;20078;-73
2020/12/04 01:24:22;;;;;;;14.18;8.30;;;5.00;99.90;;;;;;5071951;28;20024;-73
2020/12/04 01:26:47;;;;;;;14.98;8.65;;;4.90;99.90;;;;;;5073181;28;20031;-73
2020/12/04 01:29:13;;;;;;;16.58;9.05;;;4.90;99.90;;;;;;5073747;28;20042;-72
2020/12/04 01:31:39;;;;;;;16.92;8.93;;;5.00;99.90;;;;;;5072255;28;20028;-72
2020/12/04 01:34:04;;;;;;;12.88;8.32;;;4.90;99.90;;;;;;5073420;28;20389;-72
2020/12/04 01:36:30;;;;;;;13.73;8.52;;;4.90;99.90;;;;;;5072675;28;20469;-72
2020/12/04 01:38:57;;;;;;;13.25;8.05;;;4.90;99.90;;;;;;5073639;28;20040;-72
2020/12/04 01:41:22;;;;;;;15.07;8.98;;;4.90;99.90;;;;;;5071748;28;20024;-73
2020/12/04 01:43:48;;;;;;;12.35;8.35;;;4.90;99.90;;;;;;5075290;28;20027;-73
2020/12/04 01:46:14;;;;;;;15.38;9.07;;;4.90;99.90;;;;;;5076873;28;20029;-73
2020/12/04 01:48:43;;;;;;;15.25;9.13;;;4.90;99.90;;;;;;5077375;28;20039;-73
2020/12/04 01:51:09;;;;;;;12.90;8.25;;;4.80;99.90;;;;;;5077063;28;20103;-73
2020/12/04 01:53:35;;;;;;;16.80;9.57;;;4.80;99.90;;;;;;5077307;28;20107;-73
2020/12/04 01:56:01;;;;;;;14.73;8.65;;;4.80;99.90;;;;;;5076963;28;20110;-72
2020/12/04 01:58:26;;;;;;;14.32;9.18;;;4.90;99.90;;;;;;5076209;28;20028;-73
2020/12/04 02:00:52;;;;;;;15.60;9.82;;;4.90;99.90;;;;;;5076349;28;20052;-72
2020/12/04 02:03:18;;;;;;;13.95;8.63;;;4.90;99.90;;;;;;5077087;28;20103;-72
2020/12/04 02:05:54;;;;;;;13.10;8.48;;;4.80;99.90;;;;;;5076523;28;20028;-73
2020/12/04 02:08:43;;;;;;;12.88;8.20;;;4.90;99.90;;;;;;5077001;28;20019;-73
2020/12/04 02:11:19;;;;;;;16.48;9.73;;;4.90;99.90;;;;;;5076412;28;20147;-73
2020/12/04 02:13:46;;;;;;;15.73;9.38;;;4.90;99.90;;;;;;5076960;28;20535;-73
2020/12/04 02:16:22;;;;;;;12.75;8.48;;;4.90;99.90;;;;;;5075468;28;20485;-72
2020/12/04 02:18:49;;;;;;;18.17;8.73;;;4.90;99.90;;;;;;5076857;28;20048;-72
2020/12/04 02:21:15;;;;;;;13.27;8.60;;;4.90;99.90;;;;;;5076728;28;20031;-72
2020/12/04 02:23:45;;;;;;;14.05;8.80;;;4.90;99.90;;;;;;5076758;28;20016;-73
2020/12/04 02:26:13;;;;;;;13.48;8.45;;;4.90;99.90;;;;;;5076714;28;20028;-73
2020/12/04 02:28:39;;;;;;;16.67;8.88;;;5.00;99.90;;;;;;5075525;28;20016;-73
2020/12/04 02:31:06;;;;;;;13.80;8.48;;;5.00;99.90;;;;;;5059083;28;20119;-73
2020/12/04 02:33:33;;;;;;;13.38;8.65;;;5.00;99.90;;;;;;5076034;28;20389;-73
2020/12/04 02:35:58;;;;;;;13.38;8.57;;;5.00;99.90;;;;;;5075073;28;20047;-73
2020/12/04 02:38:25;;;;;;;12.55;8.00;;;5.00;99.90;;;;;;5076491;28;20466;-73
2020/12/04 02:40:52;;;;;;;15.15;9.10;;;5.00;99.90;;;;;;5076386;28;20411;-72
2020/12/04 02:43:18;;;;;;;13.35;8.95;;;5.00;99.90;;;;;;5076393;28;20013;-72
2020/12/04 02:45:43;;;;;;;15.55;8.75;;;5.00;99.90;;;;;;5075798;28;20496;-73
2020/12/04 02:48:10;;;;;;;19.33;9.82;;;5.00;99.90;;;;;;5075138;28;20029;-72
2020/12/04 02:50:35;;;;;;;15.52;9.52;;;5.00;99.90;;;;;;5075985;28;20031;-72
2020/12/04 02:53:01;;;;;;;15.52;9.10;;;5.00;99.90;;;;;;5074738;28;20037;-73
2020/12/04 02:55:26;;;;;;;18.52;10.48;;;5.00;99.90;;;;;;5075200;28;20029;-73
2020/12/04 02:57:52;;;;;;;16.38;9.90;;;4.90;99.90;;;;;;5074987;28;20486;-73
2020/12/04 03:00:18;;;;;;;17.15;10.18;;;4.80;99.90;;;;;;5075564;28;20438;-73
2020/12/04 03:02:43;;;;;;;17.15;10.38;;;4.80;99.90;;;;;;5058132;28;20094;-72
2020/12/04 03:05:09;;;;;;;16.48;10.13;;;4.80;99.90;;;;;;5076002;28;20465;-72
2020/12/04 03:07:36;;;;;;;15.52;9.57;;;4.80;99.90;;;;;;5074162;28;20362;-72
2020/12/04 03:10:04;;;;;;;18.63;10.90;;;4.80;99.90;;;;;;5075620;28;20019;-73
2020/12/04 03:12:30;;;;;;;16.00;9.82;;;4.80;99.90;;;;;;5074697;28;20048;-73
2020/12/04 03:14:55;;;;;;;18.50;10.02;;;4.80;99.90;;;;;;5075523;28;20052;-73
2020/12/04 03:17:21;;;;;;;15.32;9.75;;;4.70;99.90;;;;;;5073959;28;20079;-72
2020/12/04 03:19:46;;;;;;;16.77;9.88;;;4.80;99.90;;;;;;5074259;28;20094;-73
2020/12/04 03:22:12;;;;;;;17.45;10.07;;;4.80;99.90;;;;;;5074154;28;20028;-73
2020/12/04 03:24:37;;;;;;;16.27;10.07;;;4.70;99.90;;;;;;5057741;28;20115;-72
2020/12/04 03:27:03;;;;;;;17.08;9.82;;;4.80;99.90;;;;;;5075558;28;20024;-73
2020/12/04 03:29:28;;;;;;;14.98;9.60;;;4.80;99.90;;;;;;5073702;28;20379;-73
2020/12/04 03:31:54;;;;;;;16.77;9.75;;;4.80;99.90;;;;;;5075448;28;20028;-72
2020/12/04 03:34:20;;;;;;;15.05;9.07;;;4.80;99.90;;;;;;5074394;28;20081;-73
2020/12/04 03:36:45;;;;;;;14.98;9.43;;;4.90;99.90;;;;;;5075344;28;20104;-72
2020/12/04 03:39:11;;;;;;;14.32;8.45;;;4.90;99.90;;;;;;5075016;28;20020;-73
2020/12/04 03:41:36;;;;;;;15.02;9.02;;;4.90;99.90;;;;;;5073353;28;20032;-73
2020/12/04 03:44:02;;;;;;;16.08;8.60;;;4.80;99.90;;;;;;5075204;28;20025;-73
2020/12/04 03:46:27;;;;;;;16.35;9.40;;;4.80;99.90;;;;;;5075147;28;20024;-73
2020/12/04 03:48:53;;;;;;;13.20;8.55;;;4.80;99.90;;;;;;5075130;28;20029;-73
2020/12/04 03:51:19;;;;;;;13.23;8.25;;;4.90;99.90;;;;;;5074780;28;20378;-73
2020/12/04 03:53:46;;;;;;;13.13;8.40;;;4.90;99.90;;;;;;5073217;28;20028;-73
2020/12/04 03:56:12;;;;;;;13.60;8.68;;;4.90;99.90;;;;;;5074955;28;20108;-73
2020/12/04 03:58:38;;;;;;;13.25;8.25;;;4.90;99.90;;;;;;5074908;28;20052;-73
2020/12/04 04:01:03;;;;;;;14.25;8.02;;;4.90;99.90;;;;;;5074180;28;20050;-73
2020/12/04 04:03:29;;;;;;;12.18;8.00;;;4.90;99.90;;;;;;5074804;28;20137;-73
2020/12/04 04:05:54;;;;;;;12.15;7.70;;;4.90;99.90;;;;;;5073837;28;20024;-73
2020/12/04 04:08:20;;;;;;;13.25;8.23;;;4.90;99.90;;;;;;5073434;28;20359;-73
2020/12/04 04:10:46;;;;;;;11.15;7.50;;;4.90;99.90;;;;;;5073229;28;20032;-73
2020/12/04 04:13:11;;;;;;;11.05;6.80;;;4.90;99.90;;;;;;5073399;28;20028;-73
2020/12/04 04:15:37;;;;;;;11.82;6.97;;;4.90;99.90;;;;;;5074066;28;20423;-73
2020/12/04 04:18:02;;;;;;;12.18;7.90;;;4.90;99.90;;;;;;5074322;28;20021;-73
2020/12/04 04:20:28;;;;;;;11.60;7.00;;;4.90;99.90;;;;;;5073195;28;20028;-73
2020/12/04 04:22:54;;;;;;;10.82;7.22;;;4.90;99.90;;;;;;5074510;28;20025;-73
2020/12/04 04:25:20;;;;;;;11.30;7.10;;;5.00;99.90;;;;;;5074469;28;20143;-73
2020/12/04 04:27:45;;;;;;;12.27;6.63;;;4.90;99.90;;;;;;5074457;28;20042;-72
2020/12/04 04:30:11;;;;;;;10.15;6.50;;;4.90;99.90;;;;;;5072597;28;20025;-72
2020/12/04 04:32:37;;;;;;;9.35;6.07;;;5.00;99.90;;;;;;5055955;28;20039;-73
2020/12/04 04:35:03;;;;;;;9.80;6.32;;;5.00;99.90;;;;;;5074347;28;20028;-72
2020/12/04 04:37:29;;;;;;;8.88;6.18;;;4.90;99.90;;;;;;5073730;28;20462;-73
2020/12/04 04:39:54;;;;;;;8.93;5.53;;;5.00;99.90;;;;;;5074023;28;20035;-73
2020/12/04 04:42:20;;;;;;;7.70;5.00;;;5.10;99.90;;;;;;5074160;28;20032;-73
2020/12/04 04:44:45;;;;;;;8.32;5.18;;;5.10;99.90;;;;;;5072356;28;20016;-73
2020/12/04 04:47:17;;;;;;;6.88;5.20;;;5.20;99.90;;;;;;5072466;28;20024;-73
2020/12/04 04:49:51;;;;;;;8.68;4.93;;;5.10;99.90;;;;;;5073905;28;20017;-73
2020/12/04 04:52:18;;;;;;;6.60;4.82;;;5.20;99.90;;;;;;5073815;28;20056;-73
2020/12/04 04:54:45;;;;;;;6.68;4.45;;;5.30;99.90;;;;;;5074074;28;20025;-73
2020/12/04 04:57:12;;;;;;;6.30;4.63;;;5.30;99.90;;;;;;5074064;28;20027;-72
2020/12/04 04:59:42;;;;;;;6.22;4.30;;;5.30;99.90;;;;;;5073560;28;20037;-72
2020/12/04 05:02:11;;;;;;;6.45;4.35;;;5.30;99.90;;;;;;5073908;28;20048;-73
2020/12/04 05:04:55;;;;;;;5.40;3.80;;;5.30;99.90;;;;;;5072886;28;20339;-73
2020/12/04 05:07:36;;;;;;;5.68;4.18;;;5.30;99.90;;;;;;5073969;28;20052;-73
2020/12/04 05:10:18;;;;;;;5.95;4.10;;;5.40;99.90;;;;;;5073326;28;20140;-73
2020/12/04 05:12:58;;;;;;;5.80;4.18;;;5.40;99.90;;;;;;5072212;28;20031;-73
2020/12/04 05:15:25;;;;;;;6.53;4.35;;;5.40;99.90;;;;;;5073885;28;20021;-72
2020/12/04 05:18:18;;;;;;;5.13;3.75;;;5.40;99.90;;;;;;5077060;28;20028;-73
2020/12/04 05:20:53;;;;;;;4.38;3.50;;;5.40;99.90;;;;;;5077886;28;20492;-73
2020/12/04 05:23:19;;;;;;;5.03;3.55;;;5.50;99.90;;;;;;5077892;28;20029;-72
2020/12/04 05:25:47;;;;;;;3.67;2.80;;;5.50;99.90;;;;;;5076427;28;20104;-72
2020/12/04 05:28:15;;;;;;;4.82;3.40;;;5.60;99.90;;;;;;5077589;28;20028;-73
2020/12/04 05:30:45;;;;;;;3.50;2.53;;;5.70;99.90;;;;;;5077810;28;20074;-73
2020/12/04 05:33:11;;;;;;;3.65;2.60;;;5.90;99.90;;;;;;5077717;28;20021;-73
2020/12/04 05:35:38;;;;;;;3.65;2.60;;;6.10;99.90;;;;;;5077683;28;20027;-73
2020/12/04 05:38:13;;;;;;;2.95;2.58;;;6.30;99.90;;;;;;5077637;28;20020;-72
2020/12/04 05:41:03;;;;;;;3.58;3.03;;;6.30;99.90;;;;;;5077239;28;20049;-73
2020/12/04 05:43:31;;;;;;;4.65;2.95;;;6.30;99.90;;;;;;5076901;28;20036;-72
2020/12/04 05:49:08;;;;;;;3.30;2.80;;;6.30;99.90;;;;;;5112283;27;20739;-71
2020/12/04 05:51:36;;;;;;;5.88;3.28;;;6.30;99.90;;;;;;5110116;28;20024;-72
2020/12/04 05:54:05;;;;;;;6.55;3.53;;;6.20;99.90;;;;;;5111892;28;20087;-71
2020/12/04 05:56:32;;;;;;;4.10;3.17;;;6.20;99.90;;;;;;5111877;28;20020;-73
2020/12/04 05:59:05;;;;;;;5.57;3.67;;;6.20;99.90;;;;;;5111767;28;20016;-72
2020/12/04 06:01:31;;;;;;;5.05;3.47;;;6.20;99.90;;;;;;5111777;28;20024;-72
2020/12/04 06:03:57;;;;;;;4.55;3.58;;;6.10;99.90;;;;;;5111702;28;20093;-73
2020/12/04 06:06:28;;;;;;;6.32;3.85;;;6.10;99.90;;;;;;5111058;28;20027;-73
2020/12/04 06:08:58;;;;;;;4.90;3.30;;;6.20;99.90;;;;;;5111645;28;20114;-73
2020/12/04 06:11:30;;;;;;;4.60;3.67;;;6.10;99.90;;;;;;5109876;28;20453;-73
2020/12/04 06:13:58;;;;;;;5.45;4.22;;;6.20;99.90;;;;;;5111297;28;20015;-73
2020/12/04 06:16:23;;;;;;;6.03;4.20;;;6.20;99.90;;;;;;5111496;28;20023;-73
2020/12/04 06:18:49;;;;;;;7.75;4.55;;;6.20;99.90;;;;;;5109999;28;20028;-73
2020/12/04 06:21:15;;;;;;;5.97;4.38;;;6.20;99.90;;;;;;5109575;28;20016;-73
2020/12/04 06:24:07;;;;;;;5.35;4.10;;;6.20;99.90;;;;;;5111365;28;20108;-73
2020/12/04 06:26:52;;;;;;;8.10;3.90;;;6.20;99.90;;;;;;5110609;28;20020;-72
2020/12/04 06:29:18;;;;;;;5.85;3.88;;;6.20;99.90;;;;;;5109334;28;20385;-72
2020/12/04 06:31:44;;;;;;;6.53;4.13;;;6.20;99.90;;;;;;5110045;28;20023;-73
2020/12/04 06:34:16;;;;;;;5.57;4.15;;;6.30;99.90;;;;;;5110909;28;20380;-72
2020/12/04 06:36:42;;;;;;;5.32;3.97;;;6.30;99.90;;;;;;5092358;28;20492;-72
2020/12/04 06:39:08;;;;;;;6.78;4.50;;;6.30;99.90;;;;;;5110817;28;20015;-73
2020/12/04 06:41:43;;;;;;;6.13;3.90;;;6.30;99.90;;;;;;5109118;28;20435;-73
2020/12/04 06:44:18;;;;;;;6.60;4.18;;;6.30;99.90;;;;;;5109475;28;20020;-72
2020/12/04 06:46:46;;;;;;;4.85;3.80;;;6.40;99.90;;;;;;5110586;28;20411;-72
2020/12/04 06:54:51;;;;;;;6.72;4.10;;;6.40;99.90;;;;;;5111159;27;20105;-69
2020/12/04 06:57:18;;;;;;;6.30;4.50;;;6.40;99.90;;;;;;5090255;28;20422;-71
2020/12/04 06:59:45;;;;;;;7.28;4.25;;;6.40;99.90;;;;;;5109382;28;20012;-71
2020/12/04 07:02:13;;;;;;;6.03;4.65;;;6.40;99.90;;;;;;5109542;28;20027;-71
2020/12/04 07:04:46;;;;;;;5.75;4.25;;;6.40;99.90;;;;;;5111761;28;20055;-71
2020/12/04 07:07:13;;;;;;;6.22;4.38;;;6.40;99.90;;;;;;5109941;28;20024;-73
2020/12/04 07:09:41;;;;;;;6.53;4.47;;;6.40;99.90;;;;;;5106929;28;20072;-72
2020/12/04 07:12:08;;;;;;;6.38;3.78;;;6.40;99.90;;;;;;5108033;28;20465;-72
2020/12/04 07:14:33;;;;;;;5.57;4.15;;;6.50;99.90;;;;;;5108398;28;20077;-74
2020/12/04 07:16:59;;;;;;;4.60;3.53;;;6.50;99.90;;;;;;5109236;28;20409;-74
2020/12/04 07:19:27;;;;;;;4.88;3.70;;;6.40;99.90;;;;;;5109809;28;20077;-74
2020/12/04 07:21:52;;;;;;;7.38;3.65;;;6.40;99.90;;;;;;5110779;28;20062;-73
2020/12/04 07:24:18;;;;;;;5.35;3.80;;;6.40;99.90;;;;;;5109944;28;20032;-73
2020/12/04 07:26:57;;;;;;;4.63;3.80;;;6.40;99.90;;;;;;5110446;28;20024;-73
2020/12/04 07:29:23;;;;;;;5.30;3.60;;;6.40;99.90;;;;;;5099191;28;20024;-74
2020/12/04 07:31:52;;;;;;;4.32;3.30;;;6.40;99.90;;;;;;5108904;28;20024;-71
2020/12/04 07:34:23;;;;;;;5.43;3.97;;;6.40;99.90;;;;;;5092173;28;20034;-71
2020/12/04 07:36:53;;;;;;;5.05;4.03;;;6.40;99.90;;;;;;5092088;28;20030;-73
2020/12/04 07:39:24;;;;;;;4.78;3.63;;;6.40;99.90;;;;;;5092238;28;20491;-72
2020/12/04 07:41:50;;;;;;;5.80;3.75;;;6.40;99.90;;;;;;5109462;28;20028;-72
2020/12/04 07:44:17;;;;;;;4.65;3.88;;;6.40;99.90;;;;;;5091785;28;20383;-72
2020/12/04 07:46:42;;;;;;;5.35;3.75;;;6.40;99.90;;;;;;5087875;28;20028;-70
2020/12/04 07:49:10;;;;;;;7.13;3.58;;;6.40;99.90;;;;;;5102573;28;20092;-69
2020/12/04 07:51:38;;;;;;;4.78;3.60;;;6.50;99.90;;;;;;5109117;28;20081;-71
2020/12/04 07:54:06;;;;;;;4.72;3.72;;;6.50;99.90;;;;;;5109257;28;20044;-70
2020/12/04 07:56:32;;;;;;;6.13;3.17;;;6.40;99.90;;;;;;5091554;28;20391;-70
2020/12/04 07:59:08;;;;;;;4.82;3.83;;;6.40;99.90;;;;;;5109918;28;20020;-70
2020/12/04 08:01:40;;;;;;;5.43;3.95;;;6.50;99.90;;;;;;5089755;28;20378;-68
2020/12/04 08:04:09;;;;;;;4.63;3.80;;;6.50;99.90;;;;;;5106787;28;20020;-71
2020/12/04 08:06:35;;;;;;;4.90;3.40;;;6.50;99.90;;;;;;5093058;28;20024;-72
2020/12/04 08:11:54;;;;;;;5.22;3.30;;;6.50;99.90;;;;;;5010855;28;20389;-70
2020/12/04 08:14:26;;;;;;;4.50;3.53;;;6.60;99.90;;;;;;4991356;28;20044;-70
2020/12/04 08:16:55;;;;;;;3.80;3.40;;;6.60;99.90;;;;;;4992141;28;20042;-70
2020/12/04 08:19:28;;;;;;;4.43;3.40;;;6.60;99.90;;;;;;5009016;28;20029;-69
2020/12/04 08:21:57;;;;;;;5.57;3.70;;;6.70;99.90;;;;;;5010333;28;20479;-72
2020/12/04 08:24:24;;;;;;;4.93;3.58;;;6.70;99.90;;;;;;5009627;28;20034;-70
2020/12/04 08:27:11;;;;;;;4.97;3.95;;;6.80;99.90;;;;;;5010156;28;20022;-70
2020/12/04 08:29:42;;;;;;;4.00;3.35;;;6.80;99.90;;;;;;5001365;28;20019;-70
2020/12/04 08:32:17;;;;;;;6.50;4.20;;;6.80;99.90;;;;;;5009105;28;20022;-72
2020/12/04 08:34:43;;;;;;;6.28;4.05;;;6.80;99.90;;;;;;5009589;28;20138;-72
2020/12/04 08:37:12;;;;;;;4.90;3.28;;;6.90;99.90;;;;;;5009488;28;20476;-72
2020/12/04 08:39:40;;;;;;;5.30;3.70;;;6.90;99.90;;;;;;5008629;28;20117;-71
2020/12/04 08:42:31;;;;;;;5.55;3.97;;;6.90;99.90;;;;;;5006976;28;20027;-71
2020/12/04 08:45:12;;;;;;;4.93;3.33;;;6.90;99.90;;;;;;5008441;28;20469;-71
2020/12/04 08:47:46;;;;;;;5.30;4.15;;;6.90;99.90;;;;;;5009532;28;20104;-70
2020/12/04 08:50:17;;;;;;;4.97;3.72;;;6.90;99.90;;;;;;5014155;28;20026;-71
2020/12/04 08:52:47;;;;;;;4.88;3.72;;;6.90;99.90;;;;;;5029225;28;20026;-71
2020/12/04 08:55:17;;;;;;;6.90;3.70;;;7.00;99.90;;;;;;5023535;28;20058;-71
2020/12/04 08:57:44;;;;;;;6.13;4.00;;;7.00;99.90;;;;;;5010001;28;20030;-73
2020/12/04 09:00:12;;;;;;;8.30;4.32;;;7.10;99.90;;;;;;5008162;28;20054;-72
2020/12/04 09:02:39;;;;;;;5.97;3.50;;;7.10;99.90;;;;;;5009193;28;20049;-72
2020/12/04 09:05:07;;;;;;;4.35;3.50;;;7.20;99.90;;;;;;5007984;28;20029;-72
2020/12/04 09:07:34;;;;;;;5.25;3.60;;;7.20;99.90;;;;;;5016003;28;20503;-72
2020/12/04 09:09:59;;;;;;;5.43;3.53;;;7.20;99.90;;;;;;5007689;28;20476;-72
2020/12/04 09:12:25;;;;;;;5.30;3.72;;;7.20;99.90;;;;;;5007535;28;20041;-72
2020/12/04 09:14:51;;;;;;;5.60;4.00;;;7.20;99.90;;;;;;5008722;28;20046;-72
2020/12/04 09:17:17;;;;;;;4.07;3.60;;;7.30;99.90;;;;;;5008134;28;20052;-73
2020/12/04 09:19:44;;;;;;;4.97;3.70;;;7.30;99.90;;;;;;5007789;28;20423;-72
2020/12/04 09:22:12;;;;;;;5.82;4.00;;;7.20;99.90;;;;;;5002004;28;20029;-72
2020/12/04 09:24:38;;;;;;;3.90;3.25;;;7.30;99.90;;;;;;4995101;28;20499;-73
2020/12/04 09:27:04;;;;;;;5.97;3.88;;;7.30;99.90;;;;;;4994195;28;20030;-71
2020/12/04 09:29:30;;;;;;;4.78;3.72;;;7.40;99.90;;;;;;4994422;28;20472;-73
2020/12/04 09:31:55;;;;;;;4.50;3.60;;;7.40;99.90;;;;;;4996248;28;20456;-72
2020/12/04 09:34:24;;;;;;;5.63;3.67;;;7.40;99.90;;;;;;4994593;28;20467;-72
2020/12/04 09:36:51;;;;;;;4.95;3.60;;;7.40;99.90;;;;;;4974371;28;20469;-73
2020/12/04 09:39:18;;;;;;;4.65;3.10;;;7.50;99.90;;;;;;4991256;28;20031;-72
2020/12/04 09:41:44;;;;;;;6.75;3.58;;;7.70;99.90;;;;;;4994435;28;20030;-71
2020/12/04 09:44:10;;;;;;;3.85;3.15;;;8.10;99.90;;;;;;4994971;28;20030;-72
2020/12/04 09:46:36;;;;;;;4.65;3.40;;;8.20;99.90;;;;;;4978677;28;20062;-72
2020/12/04 09:49:02;;;;;;;4.25;3.10;;;8.10;99.90;;;;;;4996045;28;20023;-70
2020/12/04 09:51:27;;;;;;;3.75;3.08;;;8.10;99.90;;;;;;4994074;28;20109;-71
2020/12/04 09:53:53;;;;;;;4.90;3.83;;;8.00;99.90;;;;;;4994557;28;20034;-73
2020/12/04 09:56:21;;;;;;;4.40;3.70;;;8.00;99.90;;;;;;4995568;28;20058;-74
2020/12/04 09:58:48;;;;;;;4.38;3.42;;;8.10;99.90;;;;;;4974930;28;20027;-73
2020/12/04 10:01:22;;;;;;;4.55;3.20;;;8.10;99.90;;;;;;4976049;28;20031;-72
2020/12/04 10:03:49;;;;;;;3.75;3.28;;;8.30;99.90;;;;;;4994153;28;20038;-71
2020/12/04 10:06:15;;;;;;;4.25;3.33;;;8.50;99.90;;;;;;4993486;28;20439;-71
2020/12/04 10:08:40;;;;;;;5.22;3.72;;;8.80;99.90;;;;;;4975494;28;20027;-72
2020/12/04 10:11:08;;;;;;;3.70;3.20;;;9.00;99.90;;;;;;4995555;28;20046;-71
2020/12/04 10:13:34;;;;;;;4.82;3.20;;;9.40;99.90;;;;;;4971939;28;20480;-70
2020/12/04 10:16:03;;;;;;;4.38;3.33;;;9.10;99.90;;;;;;4994228;28;20029;-71
2020/12/04 10:18:28;;;;;;;5.25;3.67;;;9.20;99.90;;;;;;4994608;28;20383;-71
2020/12/04 10:20:54;;;;;;;4.53;3.50;;;9.00;99.90;;;;;;4998387;28;20033;-70
2020/12/04 10:23:19;;;;;;;2.88;2.60;;;9.00;99.90;;;;;;4993440;28;20026;-72
2020/12/04 10:25:45;;;;;;;4.72;3.22;;;9.30;99.90;;;;;;4993327;28;20072;-71
2020/12/04 10:28:10;;;;;;;7.88;3.40;;;9.60;99.90;;;;;;4993097;28;20026;-70
2020/12/04 10:30:36;;;;;;;5.18;2.90;;;10.40;99.90;;;;;;4992936;28;20121;-72
2020/12/04 10:33:02;;;;;;;4.07;3.05;;;11.00;99.90;;;;;;4993274;28;20027;-74
2020/12/04 10:35:27;;;;;;;3.20;2.90;;;10.90;99.90;;;;;;4995323;28;20077;-70
2020/12/04 10:37:53;;;;;;;3.13;2.75;;;11.60;99.90;;;;;;4993384;28;20041;-69
2020/12/04 10:40:18;;;;;;;3.33;2.88;;;12.40;99.90;;;;;;4993321;28;20030;-70
2020/12/04 10:42:44;;;;;;;6.15;2.80;;;13.10;99.90;;;;;;4994011;28;20030;-69
2020/12/04 10:45:09;;;;;;;3.65;2.83;;;12.70;99.90;;;;;;4978000;28;20033;-70
2020/12/04 10:47:35;;;;;;;3.58;2.67;;;12.10;99.90;;;;;;4994431;28;20484;-70
2020/12/04 10:50:00;;;;;;;3.80;3.20;;;11.90;99.90;;;;;;4993313;28;20433;-70
2020/12/04 10:52:26;;;;;;;3.78;2.60;;;11.60;99.90;;;;;;4994640;28;20027;-70
2020/12/04 10:54:51;;;;;;;3.50;2.58;;;11.60;99.90;;;;;;4994495;28;20030;-70
2020/12/04 10:57:17;;;;;;;5.20;2.60;;;10.90;99.90;;;;;;4994052;28;20054;-72
2020/12/04 10:59:42;;;;;;;5.07;2.92;;;11.00;99.90;;;;;;4994327;28;20031;-70
2020/12/04 11:02:17;;;;;;;4.55;3.00;;;11.60;99.90;;;;;;4993005;28;20023;-70
2020/12/04 11:07:28;;;;;;;3.53;2.92;;;11.00;99.90;;;;;;4993412;28;20026;-72
2020/12/04 11:09:53;;;;;;;4.13;2.72;;;10.90;99.90;;;;;;4993666;28;20057;-71
2020/12/04 11:12:19;;;;;;;4.60;2.80;;;10.70;99.90;;;;;;4973976;28;20026;-72
2020/12/04 11:14:45;;;;;;;6.60;2.97;;;10.40;99.90;;;;;;4994543;28;20028;-72
2020/12/04 11:17:10;;;;;;;3.60;2.75;;;10.20;99.90;;;;;;4994089;28;20054;-73
2020/12/04 11:19:36;;;;;;;5.15;3.20;;;10.20;99.90;;;;;;4992783;28;20424;-69
2020/12/04 11:22:02;;;;;;;4.70;3.22;;;9.90;99.90;;;;;;4991523;28;20420;-71
2020/12/04 11:24:28;;;;;;;4.18;3.10;;;9.70;99.90;;;;;;4992685;28;20073;-71
2020/12/04 11:26:53;;;;;;;4.55;2.72;;;9.50;99.90;;;;;;4992581;28;20034;-71
2020/12/04 11:29:19;;;;;;;4.38;3.00;;;9.30;99.90;;;;;;4993087;28;20023;-72
2020/12/04 11:31:45;;;;;;;3.85;2.83;;;9.30;99.90;;;;;;4993046;28;20061;-71
2020/12/04 11:34:10;;;;;;;4.25;3.60;;;9.50;99.90;;;;;;4992683;28;20018;-73
2020/12/04 11:36:36;;;;;;;3.97;3.05;;;9.60;99.90;;;;;;4975699;28;20038;-72
2020/12/04 11:39:01;;;;;;;3.67;2.90;;;9.50;99.90;;;;;;4993731;28;20026;-71
2020/12/04 11:41:30;;;;;;;4.43;2.75;;;9.50;99.90;;;;;;4993295;28;20031;-71
2020/12/04 11:43:57;;;;;;;3.55;2.72;;;9.40;99.90;;;;;;4990406;28;20049;-71
2020/12/04 11:46:23;;;;;;;4.57;3.10;;;9.40;99.90;;;;;;4990610;28;20109;-71
2020/12/04 11:48:48;;;;;;;2.95;2.55;;;9.50;99.90;;;;;;4992085;28;20114;-71
2020/12/04 11:51:14;;;;;;;4.70;2.90;;;9.60;99.90;;;;;;4992048;28;20113;-71
2020/12/04 11:53:39;;;;;;;3.72;2.50;;;9.60;99.90;;;;;;4991608;28;20435;-74
2020/12/04 11:56:06;;;;;;;3.50;2.50;;;9.70;99.90;;;;;;4981846;28;20068;-75
2020/12/04 11:58:31;;;;;;;4.75;2.70;;;9.60;99.90;;;;;;4995356;28;20379;-75
2020/12/04 12:00:57;;;;;;;3.80;2.35;;;9.70;99.90;;;;;;4993836;28;20030;-75
2020/12/04 12:03:22;;;;;;;2.83;2.30;;;9.80;99.90;;;;;;4992488;28;20041;-75
2020/12/04 12:05:48;;;;;;;4.28;2.42;;;9.80;99.90;;;;;;4992130;28;20038;-74
2020/12/04 12:08:14;;;;;;;4.35;2.40;;;9.90;99.90;;;;;;4992402;28;20030;-75
2020/12/04 12:10:40;;;;;;;2.38;2.13;;;9.90;99.90;;;;;;4991975;28;20133;-75
2020/12/04 12:13:05;;;;;;;3.33;2.38;;;9.80;99.90;;;;;;4992029;28;20105;-74
2020/12/04 12:15:31;;;;;;;4.05;2.22;;;9.70;99.90;;;;;;4992543;28;20030;-71
2020/12/04 12:17:56;;;;;;;4.68;2.28;;;9.60;99.90;;;;;;4992530;28;20371;-73
2020/12/04 12:20:22;;;;;;;3.28;2.28;;;9.40;99.90;;;;;;4991664;28;20076;-73
2020/12/04 12:22:47;;;;;;;4.63;2.40;;;9.20;99.90;;;;;;4993871;28;20062;-74
2020/12/04 12:25:13;;;;;;;2.25;1.98;;;9.10;99.90;;;;;;4994075;28;20069;-71
2020/12/04 12:27:40;;;;;;;3.97;2.13;;;9.10;99.90;;;;;;4992002;28;20052;-73
2020/12/04 12:30:05;;;;;;;3.42;2.15;;;9.00;99.90;;;;;;4990855;28;20030;-73
2020/12/04 12:32:31;;;;;;;4.78;2.38;;;9.00;99.90;;;;;;4992640;28;20093;-72
2020/12/04 12:35:12;;;;;;;4.07;2.30;;;9.00;99.90;;;;;;4991602;28;20113;-73
2020/12/04 12:37:39;;;;;;;2.97;2.15;;;9.10;99.90;;;;;;4990435;28;20400;-73
2020/12/04 12:40:07;;;;;;;4.32;2.65;;;9.10;99.90;;;;;;4992665;28;20034;-72
2020/12/04 12:42:34;;;;;;;3.05;2.13;;;9.20;99.90;;;;;;4992571;28;20042;-73
2020/12/04 12:45:00;;;;;;;5.13;2.33;;;9.20;99.90;;;;;;4991681;28;20018;-73
2020/12/04 12:47:26;;;;;;;5.82;2.30;;;9.30;99.90;;;;;;4975369;28;20034;-72
2020/12/04 12:49:51;;;;;;;2.97;2.10;;;9.30;99.90;;;;;;4991941;28;20511;-73
2020/12/04 12:52:17;;;;;;;2.78;1.95;;;9.20;99.90;;;;;;4992647;28;20030;-73
2020/12/04 12:54:43;;;;;;;3.22;2.13;;;9.20;99.90;;;;;;4992279;28;20127;-73
2020/12/04 12:57:09;;;;;;;4.25;2.50;;;9.20;99.90;;;;;;4995329;28;20065;-72
2020/12/04 12:59:35;;;;;;;3.00;2.17;;;9.20;99.90;;;;;;4995193;28;20030;-75
2020/12/04 13:02:00;;;;;;;2.97;2.17;;;9.30;99.90;;;;;;4996491;28;20021;-74
2020/12/04 13:04:27;;;;;;;5.75;2.63;;;9.40;99.90;;;;;;4996522;28;20050;-74
2020/12/04 13:06:53;;;;;;;2.78;1.92;;;9.50;99.90;;;;;;4990465;28;20022;-73
2020/12/04 13:09:21;;;;;;;2.80;2.05;;;9.60;99.90;;;;;;4995081;28;20022;-72